Time;durP1;ratioP1;P1;durP2;ratioP2;P2;SDS_P1;SDS_P2;PMS_P1;PMS_P2;Temp;Humidity;BMP_temperature;BMP_pressure;BME280_temperature;BME280_humidity;BME280_pressure;Samples;Min_cycle;Max_cycle;Signal;HPM_P1;HPM_P2
2022/09/20 00:00:19;;;;;;;8.18;2.60;;;;;;;8.27;100.00;101374.31;679128;29;1934;-65
2022/09/20 00:00:41;;;;;;;6.70;2.70;;;;;;;8.27;100.00;101375.19;680186;29;1184;-63
2022/09/20 00:01:12;;;;;;;6.82;2.85;;;;;;;8.28;100.00;101376.06;681622;29;1145;-63
2022/09/20 00:01:33;;;;;;;8.43;2.95;;;;;;;8.29;100.00;101370.00;683718;28;4478;-64
2022/09/20 00:01:53;;;;;;;7.97;2.88;;;;;;;8.30;100.00;101377.84;682674;28;992;-64
2022/09/20 00:02:13;;;;;;;5.63;2.70;;;;;;;8.32;100.00;101383.06;683599;28;1058;-64
2022/09/20 00:02:34;;;;;;;6.93;2.67;;;;;;;8.33;100.00;101382.22;685014;28;1308;-65
2022/09/20 00:02:54;;;;;;;7.88;2.80;;;;;;;8.32;100.00;101372.66;684638;28;1224;-64
2022/09/20 00:03:16;;;;;;;8.03;3.00;;;;;;;8.32;100.00;101377.84;684585;28;1063;-64
2022/09/20 00:03:39;;;;;;;5.30;2.60;;;;;;;8.29;100.00;101385.63;682260;28;1265;-63
2022/09/20 00:04:01;;;;;;;7.30;2.63;;;;;;;8.27;100.00;101380.41;684150;28;2244;-63
2022/09/20 00:04:21;;;;;;;6.18;2.60;;;;;;;8.30;100.00;101375.22;684491;28;1071;-64
2022/09/20 00:04:41;;;;;;;6.90;2.60;;;;;;;8.34;100.00;101371.81;683712;28;4350;-63
2022/09/20 00:05:03;;;;;;;7.07;2.78;;;;;;;8.41;100.00;101375.41;684705;28;1131;-63
2022/09/20 00:05:23;;;;;;;6.70;2.65;;;;;;;8.44;100.00;101380.66;684711;28;1048;-63
2022/09/20 00:05:45;;;;;;;7.40;2.80;;;;;;;8.45;100.00;101374.63;683673;28;1147;-64
2022/09/20 00:06:09;;;;;;;7.53;2.60;;;;;;;8.43;100.00;101375.44;682967;28;1938;-64
2022/09/20 00:06:31;;;;;;;7.20;2.70;;;;;;;8.41;100.00;101372.81;683926;28;1194;-63
2022/09/20 00:06:51;;;;;;;7.15;2.80;;;;;;;8.41;100.00;101380.63;683841;28;1259;-64
2022/09/20 00:07:11;;;;;;;6.60;2.83;;;;;;;8.40;100.00;101378.84;683709;28;1425;-64
2022/09/20 00:07:32;;;;;;;6.23;2.40;;;;;;;8.41;100.00;101383.22;683302;28;4398;-64
2022/09/20 00:07:52;;;;;;;6.40;2.60;;;;;;;8.42;100.00;101381.47;684698;28;1200;-64
2022/09/20 00:08:15;;;;;;;7.25;2.90;;;;;;;8.41;100.00;101375.41;682533;28;1323;-63
2022/09/20 00:08:36;;;;;;;7.63;2.83;;;;;;;8.40;100.00;101375.38;684906;28;1116;-64
2022/09/20 00:08:58;;;;;;;10.25;2.78;;;;;;;8.39;100.00;101377.13;685879;28;1240;-64
2022/09/20 00:09:18;;;;;;;9.93;2.70;;;;;;;8.40;100.00;101376.25;683759;28;1023;-64
2022/09/20 00:09:39;;;;;;;9.37;2.80;;;;;;;8.41;100.00;101377.16;684466;28;1088;-64
2022/09/20 00:10:00;;;;;;;7.47;2.70;;;;;;;8.41;100.00;101380.63;683092;28;1962;-64
2022/09/20 00:10:21;;;;;;;9.33;2.80;;;;;;;8.43;100.00;101376.31;684801;28;1173;-63
2022/09/20 00:10:42;;;;;;;9.73;2.92;;;;;;;8.45;100.00;101382.44;684408;28;4434;-63
2022/09/20 00:11:05;;;;;;;8.87;2.87;;;;;;;8.45;100.00;101379.84;684579;28;1167;-63
2022/09/20 00:11:29;;;;;;;7.20;2.58;;;;;;;8.45;100.00;101379.84;684334;28;1053;-63
2022/09/20 00:11:50;;;;;;;7.03;2.75;;;;;;;8.44;100.00;101380.66;685065;28;1290;-64
2022/09/20 00:12:10;;;;;;;6.20;2.63;;;;;;;8.45;100.00;101379.84;683990;28;978;-64
2022/09/20 00:12:31;;;;;;;5.53;2.67;;;;;;;8.44;100.00;101378.06;685229;28;1500;-64
2022/09/20 00:12:51;;;;;;;8.00;2.70;;;;;;;8.45;100.00;101377.25;685010;28;1320;-64
2022/09/20 00:13:12;;;;;;;6.60;3.00;;;;;;;8.46;100.00;101379.00;685095;28;1400;-63
2022/09/20 00:13:34;;;;;;;7.18;2.85;;;;;;;8.48;100.00;101377.28;684377;28;4573;-63
2022/09/20 00:13:55;;;;;;;7.10;2.78;;;;;;;8.50;100.00;101378.19;685310;28;1241;-64
2022/09/20 00:14:16;;;;;;;6.57;2.88;;;;;;;8.52;100.00;101384.28;682715;28;1080;-64
2022/09/20 00:14:36;;;;;;;7.93;2.75;;;;;;;8.52;100.00;101379.09;680663;29;1239;-64
2022/09/20 00:14:57;;;;;;;10.23;3.10;;;;;;;8.54;100.00;101373.88;680738;29;1179;-64
2022/09/20 00:15:17;;;;;;;9.35;2.85;;;;;;;8.55;100.00;101377.38;680747;29;1215;-64
2022/09/20 00:15:43;;;;;;;10.20;3.00;;;;;;;8.52;100.00;101376.47;682080;28;1117;-63
2022/09/20 00:16:12;;;;;;;8.05;2.70;;;;;;;8.50;100.00;101374.69;682779;28;1457;-63
2022/09/20 00:16:36;;;;;;;8.07;2.80;;;;;;;8.48;100.00;101373.81;684231;28;4464;-64
2022/09/20 00:16:57;;;;;;;8.68;2.88;;;;;;;8.47;100.00;101378.16;685254;28;1284;-63
2022/09/20 00:17:17;;;;;;;6.80;3.03;;;;;;;8.45;100.00;101372.03;684996;28;1104;-64
2022/09/20 00:17:38;;;;;;;7.77;2.97;;;;;;;8.43;100.00;101380.63;684613;28;1112;-64
2022/09/20 00:17:58;;;;;;;6.95;2.70;;;;;;;8.41;100.00;101383.22;684519;28;1273;-64
2022/09/20 00:18:18;;;;;;;8.00;3.07;;;;;;;8.40;100.00;101381.47;682135;28;971;-64
2022/09/20 00:18:39;;;;;;;7.43;2.97;;;;;;;8.41;100.00;101378.00;682530;28;1158;-63
2022/09/20 00:19:02;;;;;;;6.30;2.90;;;;;;;8.41;100.00;101380.63;682068;28;1140;-63
2022/09/20 00:19:23;;;;;;;7.65;2.83;;;;;;;8.42;100.00;101381.47;680979;28;1199;-63
2022/09/20 00:19:43;;;;;;;7.70;2.90;;;;;;;8.43;100.00;101381.53;681484;28;4353;-64
2022/09/20 00:20:04;;;;;;;7.22;2.90;;;;;;;8.44;100.00;101378.06;683578;28;1159;-64
2022/09/20 00:20:25;;;;;;;8.93;3.33;;;;;;;8.48;100.00;101379.88;683994;28;1023;-64
2022/09/20 00:20:46;;;;;;;8.63;3.10;;;;;;;8.50;100.00;101378.19;685287;28;1047;-63
2022/09/20 00:21:14;;;;;;;8.88;3.00;;;;;;;8.52;100.00;101379.09;683540;28;1270;-64
2022/09/20 00:21:36;;;;;;;8.05;2.58;;;;;;;8.55;100.00;101378.25;684961;28;982;-64
2022/09/20 00:21:56;;;;;;;9.75;2.75;;;;;;;8.56;100.00;101374.81;684830;28;1032;-63
2022/09/20 00:22:17;;;;;;;7.17;3.10;;;;;;;8.56;100.00;101380.00;685480;28;991;-64
2022/09/20 00:22:37;;;;;;;7.35;2.90;;;;;;;8.56;100.00;101377.41;684366;28;4316;-64
2022/09/20 00:22:57;;;;;;;8.23;2.90;;;;;;;8.55;100.00;101374.78;684527;28;1308;-63
2022/09/20 00:23:18;;;;;;;8.37;2.90;;;;;;;8.55;100.00;101374.78;684596;28;1297;-63
2022/09/20 00:23:39;;;;;;;8.63;3.00;;;;;;;8.52;100.00;101380.81;685210;28;1123;-64
2022/09/20 00:24:00;;;;;;;6.17;2.87;;;;;;;8.54;100.00;101384.31;685186;28;1210;-63
2022/09/20 00:24:20;;;;;;;6.38;2.80;;;;;;;8.55;100.00;101380.00;684925;28;1043;-64
2022/09/20 00:24:41;;;;;;;7.60;2.80;;;;;;;8.57;100.00;101380.88;682660;28;1191;-64
2022/09/20 00:25:02;;;;;;;5.63;2.87;;;;;;;8.58;100.00;101377.44;683653;28;1215;-63
2022/09/20 00:25:22;;;;;;;6.90;2.72;;;;;;;8.58;100.00;101385.25;682592;28;1070;-64
2022/09/20 00:25:43;;;;;;;6.27;2.67;;;;;;;8.58;100.00;101383.50;681588;29;4304;-64
2022/09/20 00:26:03;;;;;;;7.43;2.90;;;;;;;8.56;100.00;101377.41;679242;29;1256;-63
2022/09/20 00:26:26;;;;;;;7.65;2.97;;;;;;;8.56;100.00;101379.16;678768;29;1960;-63
2022/09/20 00:26:46;;;;;;;7.57;3.03;;;;;;;8.55;100.00;101378.25;681739;28;1242;-64
2022/09/20 00:27:07;;;;;;;8.03;2.90;;;;;;;8.54;100.00;101378.25;684352;28;1219;-64
2022/09/20 00:27:28;;;;;;;9.05;3.05;;;;;;;8.54;100.00;101378.25;684930;28;1088;-64
2022/09/20 00:27:48;;;;;;;8.90;3.10;;;;;;;8.53;100.00;101374.78;682717;28;1251;-63
2022/09/20 00:28:09;;;;;;;7.90;3.00;;;;;;;8.51;100.00;101377.34;684545;28;1088;-63
2022/09/20 00:28:31;;;;;;;7.22;3.20;;;;;;;8.51;100.00;101374.75;684328;28;3625;-64
2022/09/20 00:28:51;;;;;;;9.40;2.97;;;;;;;8.52;100.00;101376.47;684489;28;4780;-63
2022/09/20 00:29:12;;;;;;;8.97;3.10;;;;;;;8.54;100.00;101380.84;681211;28;1358;-64
2022/09/20 00:29:33;;;;;;;8.75;3.47;;;;;;;8.51;100.00;101379.06;682639;28;1004;-64
2022/09/20 00:29:53;;;;;;;7.72;3.45;;;;;;;8.49;100.00;101381.66;684377;28;1176;-63
2022/09/20 00:30:13;;;;;;;7.63;3.47;;;;;;;8.48;100.00;101381.63;680840;28;1031;-64
2022/09/20 00:30:34;;;;;;;6.97;2.90;;;;;;;8.48;100.00;101374.69;682223;28;1061;-64
2022/09/20 00:30:55;;;;;;;7.80;3.00;;;;;;;8.50;100.00;101379.91;681466;28;1104;-64
2022/09/20 00:31:16;;;;;;;8.50;3.25;;;;;;;8.49;100.00;101372.97;681273;28;1234;-64
2022/09/20 00:31:39;;;;;;;6.75;2.95;;;;;;;8.46;100.00;101376.41;680888;28;5545;-63
2022/09/20 00:31:59;;;;;;;8.15;2.97;;;;;;;8.44;100.00;101378.06;682905;28;1049;-64
2022/09/20 00:32:19;;;;;;;8.70;3.00;;;;;;;8.41;100.00;101380.63;681680;28;1176;-63
2022/09/20 00:32:40;;;;;;;9.63;3.25;;;;;;;8.41;100.00;101372.81;682725;28;1137;-64
2022/09/20 00:33:00;;;;;;;9.47;3.33;;;;;;;8.42;100.00;101377.16;682203;28;1184;-63
2022/09/20 00:33:23;;;;;;;7.60;3.00;;;;;;;8.43;100.00;101376.31;682659;28;1013;-63
2022/09/20 00:35:09;;;;;;;8.93;3.30;;;;;;;8.48;100.00;101369.47;684296;28;5022;-64
2022/09/20 00:35:30;;;;;;;10.50;3.25;;;;;;;8.47;100.00;101375.56;684325;28;949;-63
2022/09/20 00:35:50;;;;;;;9.33;3.40;;;;;;;8.50;100.00;101378.19;684561;28;5034;-64
2022/09/20 00:36:11;;;;;;;8.20;3.30;;;;;;;8.50;100.00;101383.41;682735;28;1255;-63
2022/09/20 00:36:31;;;;;;;8.70;3.37;;;;;;;8.51;100.00;101379.97;680718;28;1252;-63
2022/09/20 00:36:51;;;;;;;8.52;3.28;;;;;;;8.53;100.00;101372.16;682704;28;1109;-64
2022/09/20 00:37:12;;;;;;;8.30;3.37;;;;;;;8.56;100.00;101376.53;683654;28;1116;-63
2022/09/20 00:37:37;;;;;;;8.98;3.30;;;;;;;8.57;100.00;101373.97;682636;28;4663;-63
2022/09/20 00:37:58;;;;;;;10.90;3.15;;;;;;;8.57;100.00;101373.06;684160;28;1160;-64
2022/09/20 00:38:18;;;;;;;10.33;3.23;;;;;;;8.51;100.00;101374.75;685037;28;1056;-63
2022/09/20 00:38:39;;;;;;;9.40;3.20;;;;;;;8.48;100.00;101373.81;684822;28;1127;-64
2022/09/20 00:39:02;;;;;;;9.90;3.13;;;;;;;8.45;100.00;101376.38;683803;28;1274;-65
2022/09/20 00:39:22;;;;;;;8.13;3.17;;;;;;;8.41;100.00;101375.41;685585;28;1327;-63
2022/09/20 00:39:43;;;;;;;6.88;3.20;;;;;;;8.39;100.00;101378.84;684252;28;1104;-63
2022/09/20 00:40:05;;;;;;;8.90;3.27;;;;;;;8.39;100.00;101379.72;684893;28;1026;-63
2022/09/20 00:40:26;;;;;;;8.65;3.63;;;;;;;8.39;100.00;101376.22;685302;28;1072;-63
2022/09/20 00:40:46;;;;;;;7.97;3.40;;;;;;;8.40;100.00;101375.38;681360;28;4441;-64
2022/09/20 00:41:07;;;;;;;8.00;3.97;;;;;;;8.40;100.00;101372.78;682120;29;1203;-63
2022/09/20 00:41:30;;;;;;;9.23;3.90;;;;;;;8.40;100.00;101372.78;682736;28;1132;-62
2022/09/20 00:41:50;;;;;;;8.95;3.10;;;;;;;8.38;100.00;101383.19;682172;29;2083;-63
2022/09/20 00:42:13;;;;;;;7.93;3.20;;;;;;;8.39;100.00;101368.41;683043;28;1085;-63
2022/09/20 00:42:34;;;;;;;6.93;3.10;;;;;;;8.40;100.00;101375.38;684605;28;1132;-63
2022/09/20 00:42:54;;;;;;;6.83;3.20;;;;;;;8.42;100.00;101373.66;685618;28;1089;-63
2022/09/20 00:43:17;;;;;;;7.60;3.00;;;;;;;8.45;100.00;101379.84;684567;28;1245;-63
2022/09/20 00:43:40;;;;;;;7.85;3.30;;;;;;;8.47;100.00;101375.56;683495;28;4393;-63
2022/09/20 00:44:01;;;;;;;7.80;3.10;;;;;;;8.50;100.00;101372.97;685116;28;1105;-63
2022/09/20 00:44:52;;;;;;;10.00;3.40;;;;;;;8.51;100.00;101373.84;684797;28;1089;-63
2022/09/20 00:45:19;;;;;;;9.07;3.40;;;;;;;8.49;100.00;101376.44;684853;28;1053;-62
2022/09/20 00:45:41;;;;;;;9.13;3.28;;;;;;;8.46;100.00;101378.09;683993;28;1302;-63
2022/09/20 00:46:03;;;;;;;7.72;3.38;;;;;;;8.44;100.00;101375.44;684731;28;1061;-63
2022/09/20 00:46:36;;;;;;;7.93;3.63;;;;;;;8.40;100.00;101370.19;684440;28;1958;-63
2022/09/20 00:46:59;;;;;;;8.18;3.40;;;;;;;8.41;100.00;101377.16;681828;28;4969;-63
2022/09/20 00:47:25;;;;;;;7.30;3.40;;;;;;;8.41;100.00;101379.75;684690;28;1128;-63
2022/09/20 00:48:17;;;;;;;8.68;3.58;;;;;;;8.39;100.00;101376.22;683508;28;1082;-63
2022/09/20 00:48:37;;;;;;;9.20;3.60;;;;;;;8.37;100.00;101376.22;682193;28;1292;-63
2022/09/20 00:49:04;;;;;;;7.87;3.50;;;;;;;8.36;100.00;101379.66;683096;28;1743;-63
2022/09/20 00:49:27;;;;;;;8.45;3.65;;;;;;;8.34;100.00;101377.03;684357;28;1394;-63
2022/09/20 00:49:50;;;;;;;8.77;3.38;;;;;;;8.33;100.00;101379.63;684600;28;4494;-63
2022/09/20 00:50:28;;;;;;;9.38;3.70;;;;;;;8.36;100.00;101382.25;685376;28;1064;-63
2022/09/20 00:51:09;;;;;;;9.15;3.45;;;;;;;8.37;100.00;101377.94;684901;28;1085;-63
2022/09/20 00:51:33;;;;;;;9.48;3.60;;;;;;;8.32;100.00;101389.19;685229;28;1049;-63
2022/09/20 00:51:59;;;;;;;8.85;3.70;;;;;;;8.30;100.00;101383.03;683645;28;1678;-63
2022/09/20 00:52:20;;;;;;;8.18;3.45;;;;;;;8.30;100.00;101384.78;684750;28;1069;-63
2022/09/20 00:52:46;;;;;;;8.57;3.47;;;;;;;8.31;100.00;101386.56;681857;28;4314;-63
2022/09/20 00:53:17;;;;;;;9.98;3.80;;;;;;;8.31;100.00;101384.81;682861;28;1148;-63
2022/09/20 00:53:42;;;;;;;8.68;3.60;;;;;;;8.33;100.00;101377.00;683299;28;1246;-63
2022/09/20 00:54:06;;;;;;;10.48;3.60;;;;;;;8.36;100.00;101390.09;684784;28;971;-63
2022/09/20 00:54:29;;;;;;;10.25;3.83;;;;;;;8.37;100.00;101385.78;685919;28;1124;-63
2022/09/20 00:54:50;;;;;;;9.70;3.55;;;;;;;8.37;100.00;101391.84;684413;28;1207;-63
2022/09/20 00:55:11;;;;;;;9.60;3.80;;;;;;;8.39;100.00;101384.03;682960;28;1156;-64
2022/09/20 00:55:35;;;;;;;9.38;3.95;;;;;;;8.40;100.00;101380.59;684502;28;4405;-63
2022/09/20 00:56:14;;;;;;;9.25;4.00;;;;;;;8.40;100.00;101384.06;682449;28;1084;-63
2022/09/20 00:56:40;;;;;;;10.50;3.85;;;;;;;8.42;100.00;101389.31;680921;28;1392;-64
2022/09/20 00:57:00;;;;;;;10.07;3.65;;;;;;;8.44;100.00;101385.88;684798;28;1049;-63
2022/09/20 00:57:21;;;;;;;8.33;3.63;;;;;;;8.43;100.00;101389.34;684759;28;992;-63
2022/09/20 00:57:42;;;;;;;7.38;3.80;;;;;;;8.45;100.00;101385.06;684168;28;1006;-63
2022/09/20 00:58:04;;;;;;;7.57;3.90;;;;;;;8.46;100.00;101381.59;685246;28;1049;-63
2022/09/20 00:58:26;;;;;;;7.30;3.60;;;;;;;8.47;100.00;101385.97;683540;28;1110;-63
2022/09/20 00:59:00;;;;;;;7.85;3.67;;;;;;;8.50;100.00;101383.41;683062;28;4627;-63
2022/09/20 00:59:38;;;;;;;8.30;3.35;;;;;;;8.54;100.00;101388.66;685063;28;1164;-63
2022/09/20 00:59:58;;;;;;;10.15;3.40;;;;;;;8.57;100.00;101386.09;685766;28;1135;-63
2022/09/20 01:00:19;;;;;;;10.07;3.60;;;;;;;8.59;100.00;101387.00;684883;28;1440;-63
2022/09/20 01:00:39;;;;;;;9.25;3.83;;;;;;;8.56;100.00;101385.22;685163;28;1104;-63
2022/09/20 01:01:00;;;;;;;9.73;3.67;;;;;;;8.57;100.00;101388.69;685463;28;1076;-63
2022/09/20 01:01:20;;;;;;;10.18;3.75;;;;;;;8.57;100.00;101380.88;685518;28;920;-64
2022/09/20 01:01:45;;;;;;;8.87;3.57;;;;;;;8.56;100.00;101386.97;685196;28;4296;-63
2022/09/20 01:02:11;;;;;;;7.95;3.22;;;;;;;8.55;100.00;101383.47;685815;28;1199;-63
2022/09/20 01:02:34;;;;;;;9.95;3.70;;;;;;;8.53;100.00;101382.59;685436;28;1326;-63
2022/09/20 01:02:59;;;;;;;7.80;3.60;;;;;;;8.52;100.00;101386.91;684973;28;1159;-63
2022/09/20 01:03:21;;;;;;;8.25;3.50;;;;;;;8.51;100.00;101386.88;685791;28;1035;-63
2022/09/20 01:03:44;;;;;;;8.85;3.20;;;;;;;8.48;100.00;101379.88;683980;28;1100;-63
2022/09/20 01:04:04;;;;;;;9.07;3.20;;;;;;;8.48;100.00;101384.22;684521;28;1188;-63
2022/09/20 01:04:27;;;;;;;7.63;3.30;;;;;;;8.48;100.00;101385.09;685168;28;1095;-63
2022/09/20 01:04:48;;;;;;;6.65;3.10;;;;;;;8.51;100.00;101387.78;683551;28;4513;-63
2022/09/20 01:05:11;;;;;;;7.60;3.20;;;;;;;8.51;100.00;101379.97;684916;28;1302;-64
2022/09/20 01:05:33;;;;;;;7.47;3.10;;;;;;;8.49;100.00;101381.66;685029;28;1358;-63
2022/09/20 01:05:54;;;;;;;9.45;3.50;;;;;;;8.47;100.00;101383.38;685074;28;1243;-63
2022/09/20 01:06:16;;;;;;;7.72;3.47;;;;;;;8.48;100.00;101387.69;684993;28;1903;-64
2022/09/20 01:06:37;;;;;;;6.78;3.33;;;;;;;8.49;100.00;101383.38;684755;28;1202;-63
2022/09/20 01:07:01;;;;;;;7.82;3.40;;;;;;;8.49;100.00;101378.19;684747;28;1080;-62
2022/09/20 01:07:23;;;;;;;9.32;3.63;;;;;;;8.47;100.00;101379.88;682598;28;1075;-63
2022/09/20 01:07:47;;;;;;;9.18;3.42;;;;;;;8.48;100.00;101379.03;681954;28;4372;-63
2022/09/20 01:08:09;;;;;;;7.07;3.30;;;;;;;8.48;100.00;101382.50;682303;28;1082;-64
2022/09/20 01:08:32;;;;;;;7.55;3.20;;;;;;;8.50;100.00;101380.81;682869;28;1117;-63
2022/09/20 01:08:55;;;;;;;8.65;3.40;;;;;;;8.50;100.00;101378.19;684719;28;1339;-63
2022/09/20 01:09:15;;;;;;;7.82;3.35;;;;;;;8.47;100.00;101380.75;685086;28;1116;-63
2022/09/20 01:09:36;;;;;;;7.67;3.20;;;;;;;8.43;100.00;101381.53;685442;28;1206;-63
2022/09/20 01:09:56;;;;;;;8.68;3.17;;;;;;;8.41;100.00;101379.75;685054;28;1103;-63
2022/09/20 01:10:17;;;;;;;8.23;3.20;;;;;;;8.38;100.00;101377.97;685560;28;1008;-63
2022/09/20 01:10:38;;;;;;;8.07;3.00;;;;;;;8.38;100.00;101388.41;683755;28;4298;-63
2022/09/20 01:10:58;;;;;;;8.80;3.13;;;;;;;8.39;100.00;101384.03;684661;28;1089;-63
2022/09/20 01:11:20;;;;;;;8.43;3.22;;;;;;;8.39;100.00;101390.16;685209;28;1188;-63
2022/09/20 01:11:40;;;;;;;8.90;3.40;;;;;;;8.39;100.00;101378.84;685719;28;1128;-63
2022/09/20 01:12:05;;;;;;;8.98;3.35;;;;;;;8.39;100.00;101382.34;685333;28;1140;-63
2022/09/20 01:12:31;;;;;;;9.15;3.28;;;;;;;8.38;100.00;101380.56;684416;28;1082;-64
2022/09/20 01:12:52;;;;;;;7.90;3.20;;;;;;;8.39;100.00;101378.84;683580;28;1108;-63
2022/09/20 01:13:13;;;;;;;6.05;3.10;;;;;;;8.37;100.00;101384.03;681882;28;1327;-63
2022/09/20 01:13:33;;;;;;;6.85;3.15;;;;;;;8.39;100.00;101382.34;681961;28;4417;-65
2022/09/20 01:13:54;;;;;;;7.33;3.20;;;;;;;8.36;100.00;101379.66;682464;28;1328;-63
2022/09/20 01:14:17;;;;;;;9.40;3.40;;;;;;;8.38;100.00;101391.00;682481;28;1355;-63
2022/09/20 01:14:40;;;;;;;8.85;3.17;;;;;;;8.36;100.00;101382.25;685119;28;1057;-63
2022/09/20 01:15:05;;;;;;;7.35;3.22;;;;;;;8.38;100.00;101377.97;684171;28;1171;-63
2022/09/20 01:15:28;;;;;;;7.18;3.30;;;;;;;8.37;100.00;101384.03;685301;28;1061;-63
2022/09/20 01:15:50;;;;;;;9.50;3.60;;;;;;;8.38;100.00;101380.56;685085;28;1516;-63
2022/09/20 01:16:13;;;;;;;7.90;3.22;;;;;;;8.37;100.00;101386.63;681780;28;1077;-64
2022/09/20 01:16:35;;;;;;;7.13;3.22;;;;;;;8.39;100.00;101382.34;681402;28;4469;-63
2022/09/20 01:16:59;;;;;;;7.95;3.00;;;;;;;8.39;100.00;101390.16;684171;28;1112;-63
2022/09/20 01:17:24;;;;;;;7.55;3.15;;;;;;;8.39;100.00;101382.34;684850;28;1163;-63
2022/09/20 01:17:49;;;;;;;7.50;3.30;;;;;;;8.35;100.00;101389.22;682152;28;1356;-63
2022/09/20 01:18:10;;;;;;;8.30;3.53;;;;;;;8.35;100.00;101388.34;684360;28;1303;-63
2022/09/20 01:18:32;;;;;;;8.63;3.45;;;;;;;8.38;100.00;101390.09;684915;28;1182;-64
2022/09/20 01:18:57;;;;;;;8.43;3.13;;;;;;;8.39;100.00;101379.72;685028;28;1060;-63
2022/09/20 01:19:36;;;;;;;9.68;3.30;;;;;;;8.41;100.00;101392.78;684701;28;1468;-64
2022/09/20 01:19:57;;;;;;;9.35;3.10;;;;;;;8.43;100.00;101380.63;684666;28;5038;-64
2022/09/20 01:20:32;;;;;;;9.30;3.33;;;;;;;8.43;100.00;101378.94;684556;28;1111;-64
2022/09/20 01:20:53;;;;;;;7.38;3.20;;;;;;;8.43;100.00;101381.53;685053;28;1219;-64
2022/09/20 01:21:16;;;;;;;7.80;3.40;;;;;;;8.46;100.00;101383.31;684918;28;1195;-64
2022/09/20 01:21:37;;;;;;;7.07;3.10;;;;;;;8.45;100.00;101382.44;685257;28;1116;-64
2022/09/20 01:22:00;;;;;;;9.77;3.77;;;;;;;8.45;100.00;101382.44;682779;28;1136;-64
2022/09/20 01:22:26;;;;;;;8.82;3.60;;;;;;;8.45;100.00;101382.44;681158;28;1531;-64
2022/09/20 01:22:51;;;;;;;6.63;3.20;;;;;;;8.45;100.00;101384.19;680468;28;4592;-64
2022/09/20 01:23:38;;;;;;;8.48;3.42;;;;;;;8.45;100.00;101386.81;682439;28;1175;-64
2022/09/20 01:24:28;;;;;;;9.35;3.22;;;;;;;8.45;100.00;101382.44;679206;29;1160;-64
2022/09/20 01:25:21;;;;;;;6.68;3.17;;;;;;;8.47;100.00;101382.47;680089;29;4046;-63
2022/09/20 01:25:57;;;;;;;8.18;3.03;;;;;;;8.48;100.00;101377.28;677801;29;5226;-63
2022/09/20 01:26:47;;;;;;;6.55;3.00;;;;;;;8.47;100.00;101383.38;677635;29;1923;-64
2022/09/20 01:27:48;;;;;;;7.07;3.05;;;;;;;8.51;100.00;101381.66;683469;28;1272;-64
2022/09/20 01:28:08;;;;;;;7.65;3.00;;;;;;;8.51;100.00;101377.34;684300;28;1635;-64
2022/09/20 01:28:29;;;;;;;7.30;2.80;;;;;;;8.52;100.00;101378.22;685024;28;1160;-63
2022/09/20 01:29:02;;;;;;;7.00;2.85;;;;;;;8.50;100.00;101375.59;684712;28;4550;-64
2022/09/20 01:29:40;;;;;;;7.43;3.03;;;;;;;8.50;100.00;101372.97;684693;28;1272;-63
2022/09/20 01:30:07;;;;;;;8.35;3.30;;;;;;;8.52;100.00;101370.41;684274;28;1343;-64
2022/09/20 01:30:39;;;;;;;7.20;3.00;;;;;;;8.50;100.00;101375.59;685876;28;1399;-63
2022/09/20 01:31:07;;;;;;;8.77;3.00;;;;;;;8.49;100.00;101379.03;686983;28;1060;-63
2022/09/20 01:31:33;;;;;;;6.13;3.00;;;;;;;8.50;100.00;101378.19;688120;28;1255;-64
2022/09/20 01:31:58;;;;;;;7.47;2.80;;;;;;;8.51;100.00;101374.75;684983;28;5200;-63
2022/09/20 01:32:22;;;;;;;7.97;3.15;;;;;;;8.52;100.00;101378.22;683694;28;1125;-63
2022/09/20 01:32:53;;;;;;;9.00;3.13;;;;;;;8.47;100.00;101375.56;684427;28;1183;-63
2022/09/20 01:33:33;;;;;;;7.05;2.97;;;;;;;8.42;100.00;101374.56;685190;28;1356;-64
2022/09/20 01:34:08;;;;;;;6.85;2.75;;;;;;;8.43;100.00;101380.63;684847;28;1284;-63
2022/09/20 01:34:33;;;;;;;6.00;2.75;;;;;;;8.47;100.00;101380.75;685131;28;1370;-63
2022/09/20 01:34:58;;;;;;;7.30;2.92;;;;;;;8.52;100.00;101378.22;683691;28;6323;-63
2022/09/20 01:35:22;;;;;;;8.15;2.88;;;;;;;8.57;100.00;101380.88;684252;28;1047;-64
2022/09/20 01:35:46;;;;;;;7.47;2.92;;;;;;;8.61;100.00;101380.06;681975;29;1797;-64
2022/09/20 01:36:11;;;;;;;6.97;2.90;;;;;;;8.63;100.00;101375.78;679835;29;5402;-64
2022/09/20 01:36:50;;;;;;;6.78;2.80;;;;;;;8.64;100.00;101377.50;681739;28;1222;-63
2022/09/20 01:37:52;;;;;;;6.55;2.83;;;;;;;8.66;100.00;101383.63;682525;28;1354;-64
2022/09/20 01:38:33;;;;;;;7.20;2.90;;;;;;;8.56;100.00;101384.38;683636;28;4812;-64
2022/09/20 01:39:07;;;;;;;7.35;2.80;;;;;;;8.47;100.00;101383.38;685788;28;1374;-64
2022/09/20 01:39:51;;;;;;;8.52;3.00;;;;;;;8.42;100.00;101390.19;686120;28;1214;-64
2022/09/20 01:40:22;;;;;;;6.63;2.92;;;;;;;8.38;100.00;101388.41;685603;28;1096;-63
2022/09/20 01:41:02;;;;;;;8.27;3.00;;;;;;;8.31;100.00;101394.38;683975;28;4455;-63
2022/09/20 01:41:30;;;;;;;8.30;3.15;;;;;;;8.29;100.00;101388.25;684403;28;1139;-64
2022/09/20 01:41:58;;;;;;;12.73;3.20;;;;;;;8.28;100.00;101391.69;684995;28;1315;-66
2022/09/20 01:42:26;;;;;;;7.45;3.40;;;;;;;8.28;100.00;101389.97;685137;28;1088;-64
2022/09/20 01:43:04;;;;;;;7.90;3.10;;;;;;;8.30;100.00;101388.25;686539;28;1147;-64
2022/09/20 01:43:40;;;;;;;8.18;3.00;;;;;;;8.33;100.00;101387.44;684922;28;1025;-64
2022/09/20 01:44:13;;;;;;;7.18;3.05;;;;;;;8.39;100.00;101390.16;684294;28;4864;-64
2022/09/20 01:44:43;;;;;;;8.65;3.17;;;;;;;8.41;100.00;101383.22;685029;28;1142;-64
2022/09/20 01:45:29;;;;;;;8.80;3.00;;;;;;;8.42;100.00;101385.00;684443;28;1065;-63
2022/09/20 01:45:51;;;;;;;8.57;3.22;;;;;;;8.42;100.00;101387.59;684179;28;1184;-64
2022/09/20 01:46:23;;;;;;;7.22;3.20;;;;;;;8.42;100.00;101379.78;684767;28;1961;-63
2022/09/20 01:46:47;;;;;;;6.90;2.90;;;;;;;8.46;100.00;101385.91;683857;28;4297;-63
2022/09/20 01:47:20;;;;;;;8.32;3.13;;;;;;;8.47;100.00;101383.38;684591;28;1287;-64
2022/09/20 01:47:52;;;;;;;7.20;3.35;;;;;;;8.47;100.00;101390.28;680962;28;1337;-63
2022/09/20 01:48:29;;;;;;;7.55;2.85;;;;;;;8.48;100.00;101387.69;681782;28;1200;-64
2022/09/20 01:49:00;;;;;;;7.50;2.83;;;;;;;8.49;100.00;101388.59;682336;28;1179;-64
2022/09/20 01:49:45;;;;;;;7.40;2.78;;;;;;;8.54;100.00;101380.84;683502;28;994;-64
2022/09/20 01:50:31;;;;;;;6.93;2.90;;;;;;;8.60;100.00;101383.53;684425;28;6270;-64
2022/09/20 01:51:28;;;;;;;8.38;3.30;;;;;;;8.60;100.00;101383.53;684253;28;1307;-64
2022/09/20 01:52:04;;;;;;;8.43;3.00;;;;;;;8.62;100.00;101384.44;684809;28;1077;-64
2022/09/20 01:53:08;;;;;;;6.22;2.90;;;;;;;8.63;100.00;101389.66;685196;28;985;-63
2022/09/20 01:54:02;;;;;;;6.55;2.72;;;;;;;8.63;100.00;101389.66;683978;28;4698;-64
2022/09/20 01:54:32;;;;;;;7.32;3.00;;;;;;;8.64;100.00;101385.31;683935;28;1029;-64
2022/09/20 01:55:24;;;;;;;6.30;2.78;;;;;;;8.62;100.00;101387.03;685100;28;1136;-64
2022/09/20 01:56:06;;;;;;;6.53;2.75;;;;;;;8.59;100.00;101384.41;685288;28;1076;-64
2022/09/20 01:56:50;;;;;;;7.00;2.95;;;;;;;8.57;100.00;101384.38;684916;28;1057;-63
2022/09/20 01:57:19;;;;;;;7.70;3.17;;;;;;;8.56;100.00;101382.63;684998;28;1219;-64
2022/09/20 01:57:39;;;;;;;7.30;3.03;;;;;;;8.56;100.00;101386.97;684623;28;1072;-64
2022/09/20 01:58:10;;;;;;;7.75;3.08;;;;;;;8.56;100.00;101386.97;685440;28;1076;-63
2022/09/20 01:58:48;;;;;;;9.10;3.17;;;;;;;8.55;100.00;101386.06;683896;28;1295;-64
2022/09/20 01:59:43;;;;;;;8.90;3.33;;;;;;;8.54;100.00;101391.28;684477;28;4773;-63
2022/09/20 02:00:06;;;;;;;6.32;2.80;;;;;;;8.54;100.00;101394.72;685196;28;1079;-64
2022/09/20 02:00:51;;;;;;;6.90;2.67;;;;;;;8.56;100.00;101392.19;684821;28;1141;-64
2022/09/20 02:01:11;;;;;;;5.68;2.90;;;;;;;8.61;100.00;101390.50;685735;28;1124;-64
2022/09/20 02:01:50;;;;;;;6.25;2.60;;;;;;;8.62;100.00;101389.66;684724;28;4474;-64
2022/09/20 02:02:48;;;;;;;8.20;3.10;;;;;;;8.59;100.00;101392.22;683336;28;2172;-64
2022/09/20 02:03:28;;;;;;;6.88;2.83;;;;;;;8.58;100.00;101387.84;683715;28;1282;-63
2022/09/20 02:04:00;;;;;;;8.13;2.97;;;;;;;8.57;100.00;101388.69;681966;28;1306;-63
2022/09/20 02:04:26;;;;;;;6.82;2.75;;;;;;;8.55;100.00;101387.81;685875;28;1127;-64
2022/09/20 02:04:56;;;;;;;8.23;3.20;;;;;;;8.55;100.00;101390.41;684142;28;4599;-64
2022/09/20 02:05:23;;;;;;;7.18;3.15;;;;;;;8.54;100.00;101384.31;686219;28;1017;-63